Time;durP1;ratioP1;P1;durP2;ratioP2;P2;SDS_P1;SDS_P2;PMS_P1;PMS_P2;Temp;Humidity;BMP_temperature;BMP_pressure;BME280_temperature;BME280_humidity;BME280_pressure;Samples;Min_cycle;Max_cycle;Signal;HPM_P1;HPM_P2
2021/09/02 00:01:30;;;;;;;7.75;7.05;;;;;;;16.67;56.91;94773.09;827691;71;32690;-77
2021/09/02 00:16:20;;;;;;;7.92;6.50;;;;;;;16.60;57.58;94785.49;828846;71;29762;-77
2021/09/02 00:17:24;;;;;;;7.05;6.45;;;;;;;16.57;57.76;94791.45;808754;73;26261;-76
2021/09/02 00:31:18;;;;;;;8.45;6.12;;;;;;;16.55;58.04;94773.20;830246;70;29684;-79
2021/09/02 00:46:37;;;;;;;6.70;5.97;;;;;;;16.50;58.39;94780.55;827521;71;32730;-75
2021/09/02 01:01:16;;;;;;;5.60;5.10;;;;;;;16.40;58.62;94778.49;828182;71;30058;-79
2021/09/02 01:16:15;;;;;;;5.78;5.28;;;;;;;16.32;58.88;94776.66;828109;71;31976;-76
2021/09/02 01:31:21;;;;;;;6.72;6.08;;;;;;;16.24;59.47;94758.92;827442;71;32742;-77
2021/09/02 01:46:28;;;;;;;6.40;5.80;;;;;;;16.19;59.96;94776.30;827251;71;33154;-79
2021/09/02 02:01:19;;;;;;;7.53;6.28;;;;;;;16.25;59.90;94755.72;828694;71;29760;-80
2021/09/02 02:16:20;;;;;;;7.42;6.70;;;;;;;16.20;60.30;94760.09;833998;71;32009;-78
2021/09/02 02:31:23;;;;;;;7.67;6.97;;;;;;;16.16;60.93;94758.38;833771;71;32758;-78
2021/09/02 02:46:13;;;;;;;7.78;7.03;;;;;;;16.20;61.19;94764.06;833839;71;30211;-78
2021/09/02 03:16:20;;;;;;;7.65;7.05;;;;;;;21.31;51.74;94767.36;834124;71;33119;-82
2021/09/02 03:31:30;;;;;;;7.50;6.90;;;;;;;22.24;47.71;94773.22;831334;71;33229;-81
2021/09/02 03:46:55;;;;;;;7.60;7.00;;;;;;;22.59;46.63;94777.08;798567;74;32972;-86
2021/09/02 04:01:47;;;;;;;8.67;7.80;;;;;;;22.66;45.61;94778.33;808427;72;33208;-84
2021/09/02 04:31:47;;;;;;;10.80;9.80;;;;;;;23.35;43.68;94793.72;867550;68;32612;-89
2021/09/02 04:46:28;;;;;;;20.10;18.30;;;;;;;23.17;45.56;94822.91;829170;71;32731;-82
2021/09/02 05:01:19;;;;;;;8.97;8.27;;;;;;;23.02;44.32;94778.34;828588;71;30811;-87
2021/09/02 05:16:09;;;;;;;8.37;7.60;;;;;;;23.13;45.22;94833.37;828853;71;30272;-80
2021/09/02 05:31:10;;;;;;;7.60;7.00;;;;;;;23.78;44.13;94836.41;828676;71;30256;-86
2021/09/02 05:46:52;;;;;;;8.53;7.60;;;;;;;23.82;43.68;94841.81;817440;72;32819;-85
2021/09/02 06:16:28;;;;;;;7.80;7.10;;;;;;;24.61;42.21;94850.77;833763;71;32701;-82
2021/09/02 06:31:25;;;;;;;7.53;6.83;;;;;;;24.50;42.05;94852.00;828588;71;32806;-80
2021/09/02 06:46:53;;;;;;;7.20;6.50;;;;;;;24.70;41.44;94853.35;808513;72;32815;-77
2021/09/02 07:01:22;;;;;;;5.80;5.30;;;;;;;25.44;40.00;94850.88;827438;71;32728;-79
2021/09/02 07:16:20;;;;;;;6.07;5.57;;;;;;;25.91;38.54;94838.48;825535;71;32719;-78
2021/09/02 07:31:59;;;;;;;5.77;5.17;;;;;;;26.12;37.68;94845.88;833793;71;27014;-78
2021/09/02 07:46:44;;;;;;;4.83;4.43;;;;;;;26.37;37.24;94855.36;827391;71;32117;-75
2021/09/02 08:01:28;;;;;;;4.60;4.20;;;;;;;26.96;36.41;94855.10;833874;71;32840;-75
2021/09/02 08:16:17;;;;;;;4.80;4.40;;;;;;;;;;823350;71;29675;-75
2021/09/02 08:46:18;;;;;;;5.30;4.80;;;;;;;;;;834474;71;32660;-76
2021/09/02 09:16:08;;;;;;;4.93;4.63;;;;;;;27.26;35.14;94849.36;825826;71;30266;-79
2021/09/02 09:31:27;;;;;;;4.73;4.40;;;;;;;26.01;37.09;94835.64;827847;71;29704;-77
2021/09/02 09:46:09;;;;;;;4.00;3.70;;;;;;;25.82;37.41;94832.66;826406;71;29686;-78
2021/09/02 10:01:14;;;;;;;18.27;16.60;;;;;;;25.83;37.45;94835.53;827155;71;32728;-77
2021/09/02 10:16:09;;;;;;;13.40;12.27;;;;;;;25.72;38.41;94822.81;833498;71;30394;-77
2021/09/02 10:31:16;;;;;;;8.00;7.30;;;;;;;25.49;40.03;94831.15;830018;71;29665;-84
2021/09/02 10:46:44;;;;;;;6.33;5.10;;;;;;;26.02;38.17;94817.02;816051;72;32769;-83
2021/09/02 11:01:28;;;;;;;4.43;4.13;;;;;;;25.53;37.92;94830.59;827382;71;32867;-82
2021/09/02 11:16:37;;;;;;;5.30;3.80;;;;;;;25.69;36.75;94823.58;801021;74;32830;-81
2021/09/02 11:31:10;;;;;;;4.30;3.90;;;;;;;26.12;35.99;94814.36;833986;71;30215;-80
2021/09/02 11:46:18;;;;;;;4.13;3.83;;;;;;;26.25;35.45;94822.08;827457;71;33493;-77
2021/09/02 12:01:29;;;;;;;5.07;4.67;;;;;;;25.53;35.64;94814.47;833721;71;32833;-81
2021/09/02 12:16:16;;;;;;;5.53;5.03;;;;;;;25.15;36.49;94815.16;828130;71;30334;-79
2021/09/02 12:31:36;;;;;;;5.40;5.00;;;;;;;24.93;35.94;94809.44;786822;75;33065;-82
2021/09/02 12:46:08;;;;;;;4.67;4.37;;;;;;;25.62;35.19;94808.75;829108;71;29897;-79
2021/09/02 13:01:17;;;;;;;4.60;4.30;;;;;;;26.08;34.80;94814.92;828950;70;32646;-80
2021/09/02 13:16:12;;;;;;;4.77;4.37;;;;;;;26.13;34.71;94790.33;835541;71;31990;-80
2021/09/02 13:31:22;;;;;;;5.00;4.57;;;;;;;25.91;35.52;94796.24;833998;71;33133;-82
2021/09/02 13:46:09;;;;;;;5.63;5.23;;;;;;;25.81;35.62;94808.25;828075;71;30702;-80
2021/09/02 14:01:08;;;;;;;5.20;4.80;;;;;;;25.81;36.00;94790.20;828161;71;29903;-80
2021/09/02 14:16:36;;;;;;;6.47;5.97;;;;;;;25.76;36.08;94812.08;833377;71;32799;-77
2021/09/02 14:31:12;;;;;;;6.53;6.03;;;;;;;25.33;37.03;94805.14;794399;74;31934;-78
2021/09/02 14:46:39;;;;;;;5.93;5.43;;;;;;;25.22;37.96;94808.32;831696;71;33873;-82
2021/09/02 15:16:08;;;;;;;6.70;6.00;;;;;;;25.03;38.31;94816.03;829051;71;29819;-79
2021/09/02 15:31:14;;;;;;;6.87;6.37;;;;;;;24.99;38.77;94807.95;827864;71;32764;-79
2021/09/02 15:46:08;;;;;;;7.40;6.80;;;;;;;24.74;38.80;94804.50;828658;71;29727;-77
2021/09/02 16:01:51;;;;;;;8.17;7.47;;;;;;;24.57;38.53;94797.05;828235;71;28020;-80
2021/09/02 16:16:25;;;;;;;7.77;7.00;;;;;;;24.49;38.91;94809.59;831490;71;32680;-81
2021/09/02 16:31:47;;;;;;;9.00;8.23;;;;;;;23.36;37.80;94831.43;809831;72;32876;-77
2021/09/02 16:46:26;;;;;;;9.80;9.00;;;;;;;22.42;39.10;94840.39;813658;71;32845;-85
2021/09/02 17:01:18;;;;;;;9.50;8.73;;;;;;;21.73;40.21;94848.20;828574;71;29746;-82
2021/09/02 17:16:38;;;;;;;10.38;9.48;;;;;;;21.17;41.42;94866.03;827593;71;32726;-84
2021/09/02 17:31:13;;;;;;;13.80;12.45;;;;;;;20.80;42.48;94889.52;833941;71;29711;-81
2021/09/02 18:31:23;;;;;;;11.90;10.80;;;;;;;20.00;45.43;94973.77;828988;71;30372;-79
2021/09/02 18:46:22;;;;;;;12.20;11.05;;;;;;;19.75;45.97;94981.02;828969;71;31978;-78
2021/09/02 19:01:25;;;;;;;10.50;9.60;;;;;;;19.64;46.50;95007.83;828164;71;32653;-76
2021/09/02 19:16:21;;;;;;;9.05;8.25;;;;;;;19.41;46.85;95006.37;833742;71;33295;-77
2021/09/02 19:31:20;;;;;;;14.15;12.78;;;;;;;19.33;47.11;95011.80;820902;71;33387;-78
2021/09/02 19:46:30;;;;;;;10.28;9.25;;;;;;;19.28;47.21;95013.33;820325;71;32855;-77
2021/09/02 20:01:28;;;;;;;12.03;10.48;;;;;;;19.17;47.35;95031.05;820323;71;32875;-78
2021/09/02 20:17:05;;;;;;;8.03;7.22;;;;;;;19.00;47.47;95024.02;808256;72;33365;-77
2021/09/02 20:31:18;;;;;;;9.70;8.83;;;;;;;19.26;52.73;95053.59;828719;71;30415;-78
2021/09/02 20:46:30;;;;;;;9.23;8.23;;;;;;;19.53;50.88;95061.52;810720;72;33255;-79
2021/09/02 21:16:20;;;;;;;7.70;7.00;;;;;;;19.76;49.50;95077.09;827042;71;32689;-77
2021/09/02 21:31:20;;;;;;;7.28;6.65;;;;;;;19.80;49.16;95085.42;827476;71;32641;-78
2021/09/02 21:46:17;;;;;;;7.10;6.30;;;;;;;19.85;49.05;95080.98;833563;71;33217;-76
2021/09/02 22:01:09;;;;;;;6.10;5.60;;;;;;;19.78;48.80;95088.97;833687;71;30205;-77
2021/09/02 22:16:18;;;;;;;7.92;7.12;;;;;;;19.69;48.83;95087.48;829097;71;33276;-78
2021/09/02 22:31:10;;;;;;;9.58;6.20;;;;;;;19.53;49.79;95087.36;828213;71;29764;-77
2021/09/02 22:46:15;;;;;;;6.62;5.95;;;;;;;19.25;50.24;95077.30;827169;71;32698;-77
2021/09/02 23:01:09;;;;;;;5.90;5.40;;;;;;;19.09;50.50;95071.05;827919;71;30353;-79
2021/09/02 23:16:15;;;;;;;5.65;5.15;;;;;;;18.95;50.24;95061.45;833692;71;31954;-78
2021/09/02 23:31:09;;;;;;;6.10;5.50;;;;;;;18.77;50.50;95044.83;828148;71;29643;-77
2021/09/02 23:46:17;;;;;;;5.37;4.87;;;;;;;18.61;51.04;95041.22;828801;71;32696;-78
